Time;durP1;ratioP1;P1;durP2;ratioP2;P2;SDS_P1;SDS_P2;PMS_P1;PMS_P2;Temp;Humidity;BMP_temperature;BMP_pressure;BME280_temperature;BME280_humidity;BME280_pressure;Samples;Min_cycle;Max_cycle;Signal;HPM_P1;HPM_P2
2024/04/04 00:00:32;;;;;;;;;;;;;;;13.06;44.63;94484.13;4194176;28;19940;-59
2024/04/04 00:02:32;;;;;;;;;;;;;;;12.73;45.49;94475.72;4183719;28;19944;-59
2024/04/04 00:04:33;;;;;;;;;;;;;;;12.48;46.17;94480.38;4185600;28;19949;-60
2024/04/04 00:06:34;;;;;;;;;;;;;;;12.52;46.08;94480.81;4189404;28;19960;-60
2024/04/04 00:08:35;;;;;;;;;;;;;;;12.48;46.15;94483.00;4178945;28;19984;-62
2024/04/04 00:10:37;;;;;;;;;;;;;;;12.46;46.18;94477.09;4193088;28;19924;-59
2024/04/04 00:12:38;;;;;;;;;;;;;;;12.60;46.13;94478.94;4185843;28;20050;-62
2024/04/04 00:14:38;;;;;;;;;;;;;;;12.86;45.42;94475.09;4183910;28;20332;-62
2024/04/04 00:16:39;;;;;;;;;;;;;;;13.10;44.83;94472.25;4180399;28;19925;-60
2024/04/04 00:18:42;;;;;;;;;;;;;;;13.18;44.59;94471.34;4185708;28;20027;-60
2024/04/04 00:20:42;;;;;;;;;;;;;;;13.19;44.39;94466.91;4189264;28;19924;-59
2024/04/04 00:22:45;;;;;;;;;;;;;;;13.13;44.51;94473.72;4191167;28;20539;-61
2024/04/04 00:24:46;;;;;;;;;;;;;;;13.23;44.79;94476.09;4191533;28;20083;-60
2024/04/04 00:26:46;;;;;;;;;;;;;;;13.38;44.28;94479.56;4195028;28;19928;-59
2024/04/04 00:28:47;;;;;;;;;;;;;;;13.50;44.17;94474.66;4192252;28;19974;-58
2024/04/04 00:30:48;;;;;;;;;;;;;;;13.63;43.78;94469.56;4192941;28;19933;-58
2024/04/04 00:32:48;;;;;;;;;;;;;;;13.74;43.45;94470.91;4185064;28;19924;-59
2024/04/04 00:34:49;;;;;;;;;;;;;;;13.82;43.44;94470.81;4182660;28;20484;-59
2024/04/04 00:36:50;;;;;;;;;;;;;;;13.81;43.21;94465.72;4190984;28;20390;-62
2024/04/04 00:38:50;;;;;;;;;;;;;;;13.75;42.94;94462.00;4180396;28;19948;-60
2024/04/04 00:40:51;;;;;;;;;;;;;;;13.76;43.25;94466.25;4180422;28;19925;-60
2024/04/04 00:42:51;;;;;;;;;;;;;;;13.84;42.84;94460.91;4183469;28;19975;-59
2024/04/04 00:44:53;;;;;;;;;;;;;;;13.92;42.78;94452.09;4178679;28;19928;-61
2024/04/04 00:46:53;;;;;;;;;;;;;;;14.02;42.46;94451.78;4190496;28;20256;-60
2024/04/04 00:48:54;;;;;;;;;;;;;;;14.08;42.70;94451.03;4189496;28;20037;-60
2024/04/04 00:50:55;;;;;;;;;;;;;;;14.16;42.47;94447.47;4204085;28;19932;-60
2024/04/04 00:52:56;;;;;;;;;;;;;;;14.23;42.22;94456.25;4165968;28;19936;-59
2024/04/04 00:54:56;;;;;;;;;;;;;;;14.29;41.95;94455.50;4190512;28;19928;-60
2024/04/04 00:56:57;;;;;;;;;;;;;;;14.36;41.77;94463.47;4191320;28;20025;-59
2024/04/04 00:58:58;;;;;;;;;;;;;;;14.39;41.69;94457.81;4161813;28;19925;-59
2024/04/04 01:00:58;;;;;;;;;;;;;;;14.40;41.54;94459.47;4172926;28;19925;-64
2024/04/04 01:02:59;;;;;;;;;;;;;;;14.42;41.66;94453.00;4172592;28;19994;-60
2024/04/04 01:05:00;;;;;;;;;;;;;;;14.47;41.35;94447.97;4168260;28;19971;-61
2024/04/04 01:07:00;;;;;;;;;;;;;;;14.50;41.17;94454.69;4184398;28;20342;-60
2024/04/04 01:09:01;;;;;;;;;;;;;;;14.50;41.37;94452.06;4178036;28;19968;-59
2024/04/04 01:11:03;;;;;;;;;;;;;;;14.50;41.30;94454.69;4181293;28;19951;-61
2024/04/04 01:13:03;;;;;;;;;;;;;;;14.49;41.36;94450.41;4186785;28;19981;-60
2024/04/04 01:15:07;;;;;;;;;;;;;;;14.46;41.55;94443.72;4193286;28;19935;-59
2024/04/04 01:17:08;;;;;;;;;;;;;;;14.51;41.67;94461.59;4182610;28;19940;-60
2024/04/04 01:19:08;;;;;;;;;;;;;;;14.50;41.14;94459.97;4181116;28;19932;-60
2024/04/04 01:21:09;;;;;;;;;;;;;;;14.48;41.15;94456.72;4170916;28;19929;-60
2024/04/04 01:23:09;;;;;;;;;;;;;;;14.49;41.12;94464.41;4181889;28;19924;-60
2024/04/04 01:25:10;;;;;;;;;;;;;;;14.48;40.81;94465.44;4181884;28;20417;-59
2024/04/04 01:27:11;;;;;;;;;;;;;;;14.49;40.88;94460.97;4180792;28;19974;-59
2024/04/04 01:29:11;;;;;;;;;;;;;;;14.52;40.75;94463.25;4187975;28;19990;-60
2024/04/04 01:31:12;;;;;;;;;;;;;;;14.50;40.60;94465.25;4180589;28;20019;-61
2024/04/04 01:33:13;;;;;;;;;;;;;;;14.46;40.65;94464.00;4186284;28;20410;-60
2024/04/04 01:35:13;;;;;;;;;;;;;;;14.49;40.85;94463.59;4188548;28;19924;-58
2024/04/04 01:37:14;;;;;;;;;;;;;;;14.45;40.68;94462.34;4183753;28;19932;-59
2024/04/04 01:39:14;;;;;;;;;;;;;;;14.44;40.64;94466.81;4189764;28;20010;-61
2024/04/04 01:41:15;;;;;;;;;;;;;;;14.44;40.62;94473.91;4190888;28;19932;-60
2024/04/04 01:43:16;;;;;;;;;;;;;;;14.39;40.40;94469.19;4189104;28;20340;-60
2024/04/04 01:45:17;;;;;;;;;;;;;;;14.38;39.92;94474.66;4184317;28;19955;-60
2024/04/04 01:47:17;;;;;;;;;;;;;;;14.37;40.01;94475.63;4191820;28;20340;-59
2024/04/04 01:49:18;;;;;;;;;;;;;;;14.36;39.82;94472.19;4186270;28;20276;-60
2024/04/04 01:51:19;;;;;;;;;;;;;;;14.36;39.79;94474.03;4187242;28;20434;-59
2024/04/04 01:53:19;;;;;;;;;;;;;;;14.35;39.83;94473.22;4187377;28;20366;-59
2024/04/04 01:55:20;;;;;;;;;;;;;;;14.33;39.50;94473.38;4184754;28;20030;-60
2024/04/04 01:57:21;;;;;;;;;;;;;;;14.29;40.12;94469.50;4183490;28;20392;-60
2024/04/04 01:59:21;;;;;;;;;;;;;;;14.23;40.03;94467.59;4184832;28;19947;-61
2024/04/04 02:01:22;;;;;;;;;;;;;;;13.91;40.13;94472.31;4187755;28;19951;-60
2024/04/04 02:03:22;;;;;;;;;;;;;;;13.53;40.99;94474.31;4190129;28;20344;-60
2024/04/04 02:05:23;;;;;;;;;;;;;;;13.38;41.32;94476.09;4185218;28;19925;-60
2024/04/04 02:07:24;;;;;;;;;;;;;;;13.23;41.77;94483.97;4187547;28;19933;-59
2024/04/04 02:09:25;;;;;;;;;;;;;;;13.03;42.78;94478.41;4176883;28;19925;-60
2024/04/04 02:11:26;;;;;;;;;;;;;;;12.99;42.62;94475.34;4183177;28;19936;-60
2024/04/04 02:13:27;;;;;;;;;;;;;;;12.92;42.59;94469.13;4188940;28;20332;-60
2024/04/04 02:15:27;;;;;;;;;;;;;;;12.86;43.11;94472.47;4172149;28;19933;-61
2024/04/04 02:17:28;;;;;;;;;;;;;;;12.95;43.05;94470.59;4188560;28;19928;-59
2024/04/04 02:19:29;;;;;;;;;;;;;;;13.06;43.01;94472.81;4184375;28;20355;-60
2024/04/04 02:21:29;;;;;;;;;;;;;;;13.17;42.52;94476.81;4188935;28;19928;-60
2024/04/04 02:23:30;;;;;;;;;;;;;;;13.28;42.33;94471.94;4182088;28;19924;-61
2024/04/04 02:25:31;;;;;;;;;;;;;;;13.44;42.30;94470.94;4195447;28;19928;-60
2024/04/04 02:27:33;;;;;;;;;;;;;;;13.56;42.26;94467.84;4185565;28;19924;-62
2024/04/04 02:29:34;;;;;;;;;;;;;;;13.65;42.28;94469.38;4179441;28;19975;-60
2024/04/04 02:31:34;;;;;;;;;;;;;;;13.73;41.63;94469.28;4190308;28;19929;-61
2024/04/04 02:33:36;;;;;;;;;;;;;;;13.83;41.68;94468.97;4193501;28;19978;-60
2024/04/04 02:35:37;;;;;;;;;;;;;;;13.90;41.43;94470.69;4189016;28;20162;-59
2024/04/04 02:37:38;;;;;;;;;;;;;;;13.94;41.25;94476.41;4190757;28;19929;-59
2024/04/04 02:39:38;;;;;;;;;;;;;;;13.95;41.41;94479.88;4186210;28;20484;-60
2024/04/04 02:41:40;;;;;;;;;;;;;;;13.89;41.70;94473.50;4191767;28;19924;-60
2024/04/04 02:43:40;;;;;;;;;;;;;;;13.86;41.62;94476.53;4180646;28;19975;-60
2024/04/04 02:45:42;;;;;;;;;;;;;;;13.87;42.17;94475.50;4188041;28;20240;-60
2024/04/04 02:47:43;;;;;;;;;;;;;;;13.87;42.39;94476.34;4194545;28;19925;-60
2024/04/04 02:49:43;;;;;;;;;;;;;;;13.91;45.00;94484.69;4191205;28;19924;-59
2024/04/04 02:51:44;;;;;;;;;;;;;;;13.99;44.61;94481.13;4190714;28;20020;-59
2024/04/04 02:53:45;;;;;;;;;;;;;;;14.03;43.38;94479.75;4166996;28;20548;-60
2024/04/04 02:55:52;;;;;;;;;;;;;;;14.04;43.04;94486.66;4196706;28;20397;-58
2024/04/04 02:57:53;;;;;;;;;;;;;;;14.03;43.03;94479.75;4196152;28;19956;-60
2024/04/04 02:59:54;;;;;;;;;;;;;;;13.95;43.28;94483.31;4190338;28;20364;-59
2024/04/04 03:01:55;;;;;;;;;;;;;;;13.91;43.04;94485.47;4170904;28;20322;-58
2024/04/04 03:03:55;;;;;;;;;;;;;;;13.86;43.24;94479.97;4184515;28;19936;-58
2024/04/04 03:05:56;;;;;;;;;;;;;;;13.86;43.38;94482.59;4190907;28;20037;-60
2024/04/04 03:07:56;;;;;;;;;;;;;;;13.83;43.56;94475.09;4186331;28;19983;-59
2024/04/04 03:09:57;;;;;;;;;;;;;;;13.89;43.43;94476.94;4183638;28;20422;-62
2024/04/04 03:11:58;;;;;;;;;;;;;;;13.87;43.90;94476.34;4189638;28;19944;-60
2024/04/04 03:13:58;;;;;;;;;;;;;;;13.92;43.63;94465.25;4184585;28;20051;-61
2024/04/04 03:15:59;;;;;;;;;;;;;;;13.91;43.22;94472.31;4189130;28;19940;-60
2024/04/04 03:18:00;;;;;;;;;;;;;;;13.87;44.05;94471.09;4193517;28;19968;-61
2024/04/04 03:20:00;;;;;;;;;;;;;;;13.92;44.56;94473.97;4192592;28;20359;-58
2024/04/04 03:22:01;;;;;;;;;;;;;;;13.90;43.79;94470.69;4186824;28;20046;-62
2024/04/04 03:24:01;;;;;;;;;;;;;;;13.85;43.26;94477.50;4192152;28;19935;-63
2024/04/04 03:26:02;;;;;;;;;;;;;;;13.79;43.32;94465.91;4195848;28;20025;-60
2024/04/04 03:28:03;;;;;;;;;;;;;;;13.82;43.58;94473.44;4184523;28;19952;-60
2024/04/04 03:30:04;;;;;;;;;;;;;;;13.82;43.71;94476.06;4181758;28;19924;-61
2024/04/04 03:32:05;;;;;;;;;;;;;;;13.83;43.47;94474.25;4163800;28;20005;-60
2024/04/04 03:34:06;;;;;;;;;;;;;;;13.83;43.24;94467.19;4167164;28;19936;-59
2024/04/04 03:36:07;;;;;;;;;;;;;;;13.83;43.92;94474.25;4185471;28;19925;-61
2024/04/04 03:38:07;;;;;;;;;;;;;;;13.84;43.55;94470.63;4191260;28;19975;-61
2024/04/04 03:40:09;;;;;;;;;;;;;;;13.82;43.55;94462.91;4189098;28;20439;-60
2024/04/04 03:42:09;;;;;;;;;;;;;;;13.83;43.05;94475.09;4187648;28;20391;-61
2024/04/04 03:44:10;;;;;;;;;;;;;;;13.81;43.02;94470.97;4169258;28;20062;-61
2024/04/04 03:46:11;;;;;;;;;;;;;;;13.84;43.00;94473.25;4194726;28;20046;-61
2024/04/04 03:48:12;;;;;;;;;;;;;;;13.80;43.19;94467.53;4186569;28;19932;-58
2024/04/04 03:50:13;;;;;;;;;;;;;;;13.78;43.44;94474.78;4187006;28;19990;-60
2024/04/04 03:52:14;;;;;;;;;;;;;;;13.85;43.06;94473.09;4185926;28;20426;-61
2024/04/04 03:54:15;;;;;;;;;;;;;;;13.86;42.99;94473.88;4180498;28;20387;-59
2024/04/04 03:56:15;;;;;;;;;;;;;;;13.88;42.87;94477.97;4190345;28;19959;-60
2024/04/04 03:58:18;;;;;;;;;;;;;;;13.78;43.17;94474.00;4182675;28;19928;-60
2024/04/04 04:00:19;;;;;;;;;;;;;;;13.57;43.74;94487.88;4189066;28;19924;-59
2024/04/04 04:02:20;;;;;;;;;;;;;;;13.34;44.02;94485.38;4189215;28;20283;-58
2024/04/04 04:04:20;;;;;;;;;;;;;;;13.21;43.99;94483.34;4190353;28;19928;-60
2024/04/04 04:06:21;;;;;;;;;;;;;;;13.08;44.84;94476.06;4194772;28;20472;-62
2024/04/04 04:08:22;;;;;;;;;;;;;;;13.19;44.83;94474.81;4190960;28;19924;-60
2024/04/04 04:10:28;;;;;;;;;;;;;;;13.30;44.95;94469.13;4181418;28;19925;-60
2024/04/04 04:12:28;;;;;;;;;;;;;;;13.40;44.97;94479.34;4194347;28;19933;-61
2024/04/04 04:14:29;;;;;;;;;;;;;;;13.44;45.14;94486.75;4192822;28;20003;-61
2024/04/04 04:16:30;;;;;;;;;;;;;;;13.54;44.43;94489.06;4187906;28;19938;-60
2024/04/04 04:18:30;;;;;;;;;;;;;;;13.59;44.58;94494.59;4188222;28;20024;-59
2024/04/04 04:22:50;;;;;;;;;;;;;;;12.86;45.56;94491.72;4186766;28;20225;-61
2024/04/04 04:24:53;;;;;;;;;;;;;;;12.31;46.04;94498.06;4184914;28;20090;-61
2024/04/04 04:26:54;;;;;;;;;;;;;;;12.38;46.72;94500.78;4169775;28;19973;-59
2024/04/04 04:28:54;;;;;;;;;;;;;;;12.59;46.18;94497.53;4187521;28;20341;-61
2024/04/04 04:30:55;;;;;;;;;;;;;;;12.68;45.79;94492.00;4185218;28;19925;-62
2024/04/04 04:32:56;;;;;;;;;;;;;;;12.85;45.24;94497.16;4194655;28;19931;-61
2024/04/04 04:34:56;;;;;;;;;;;;;;;13.03;44.64;94496.81;4194105;28;20053;-59
2024/04/04 04:37:00;;;;;;;;;;;;;;;13.20;44.22;94500.09;4189685;28;19933;-61
2024/04/04 04:39:01;;;;;;;;;;;;;;;13.32;43.69;94503.97;4193233;28;20020;-62
2024/04/04 04:41:04;;;;;;;;;;;;;;;13.41;43.90;94502.88;4181646;28;19928;-59
2024/04/04 04:43:05;;;;;;;;;;;;;;;13.47;44.08;94503.97;4190415;28;20308;-59
2024/04/04 04:45:06;;;;;;;;;;;;;;;13.42;43.99;94501.88;4192379;28;19924;-59
2024/04/04 04:47:06;;;;;;;;;;;;;;;13.18;44.02;94512.63;4186324;28;19992;-60
2024/04/04 04:49:07;;;;;;;;;;;;;;;13.17;43.76;94514.44;4192622;28;20055;-60
2024/04/04 04:51:08;;;;;;;;;;;;;;;13.11;43.76;94513.31;4178953;28;20028;-59
2024/04/04 04:53:09;;;;;;;;;;;;;;;13.15;43.68;94513.78;4188758;28;19924;-61
2024/04/04 04:55:09;;;;;;;;;;;;;;;13.17;43.57;94518.88;4190394;28;19924;-61
2024/04/04 04:57:10;;;;;;;;;;;;;;;12.99;43.03;94522.66;4186810;28;20390;-61
2024/04/04 04:59:11;;;;;;;;;;;;;;;12.58;43.93;94517.72;4177926;28;19924;-60
2024/04/04 05:01:13;;;;;;;;;;;;;;;12.35;45.06;94530.06;4189502;28;19951;-60
2024/04/04 05:03:14;;;;;;;;;;;;;;;11.92;46.11;94532.25;4189240;28;19925;-60
2024/04/04 05:05:19;;;;;;;;;;;;;;;11.83;46.38;94529.63;4190098;28;20657;-61
2024/04/04 05:07:19;;;;;;;;;;;;;;;11.85;46.42;94526.81;4193214;28;20446;-60
2024/04/04 05:09:20;;;;;;;;;;;;;;;11.86;46.18;94534.53;4179973;28;20023;-60
2024/04/04 05:11:21;;;;;;;;;;;;;;;12.05;46.24;94532.50;4189208;28;20668;-60
2024/04/04 05:13:21;;;;;;;;;;;;;;;12.11;45.72;94537.09;4180765;28;20053;-60
2024/04/04 05:15:22;;;;;;;;;;;;;;;12.26;45.92;94540.59;4190741;28;19958;-60
2024/04/04 05:17:23;;;;;;;;;;;;;;;12.32;46.00;94546.13;4205675;28;19997;-60
2024/04/04 05:19:24;;;;;;;;;;;;;;;12.36;46.12;94544.81;4191340;28;20445;-58
2024/04/04 05:21:24;;;;;;;;;;;;;;;12.14;47.11;94547.22;4185461;28;20406;-60
2024/04/04 05:23:25;;;;;;;;;;;;;;;12.12;47.12;94549.22;4189763;28;20264;-60
2024/04/04 05:25:27;;;;;;;;;;;;;;;12.22;47.19;94549.81;4188254;28;20029;-61
2024/04/04 05:27:27;;;;;;;;;;;;;;;12.35;46.97;94548.44;4187004;28;20425;-61
2024/04/04 05:29:28;;;;;;;;;;;;;;;12.55;46.65;94543.53;4182230;28;20052;-60
2024/04/04 05:31:29;;;;;;;;;;;;;;;12.72;46.41;94554.75;4182045;28;19928;-64
2024/04/04 05:33:29;;;;;;;;;;;;;;;12.82;45.96;94550.91;4190765;28;19929;-60
2024/04/04 05:35:30;;;;;;;;;;;;;;;12.81;45.71;94551.06;4179530;28;20409;-62
2024/04/04 05:37:30;;;;;;;;;;;;;;;12.90;45.96;94550.00;4185794;28;19928;-60
2024/04/04 05:39:31;;;;;;;;;;;;;;;13.04;45.36;94551.88;4197738;28;20363;-61
2024/04/04 05:41:32;;;;;;;;;;;;;;;13.18;45.28;94555.50;4187161;28;20457;-60
2024/04/04 05:43:32;;;;;;;;;;;;;;;13.32;44.81;94554.75;4185990;28;19924;-61
2024/04/04 05:45:33;;;;;;;;;;;;;;;13.46;44.27;94549.69;4191918;28;19978;-61
2024/04/04 05:47:34;;;;;;;;;;;;;;;13.59;43.92;94552.50;4169383;28;19925;-60
2024/04/04 05:49:34;;;;;;;;;;;;;;;13.68;43.69;94555.88;4183796;28;20324;-61
2024/04/04 05:51:35;;;;;;;;;;;;;;;13.80;43.84;94553.59;4184301;28;19925;-61
2024/04/04 05:53:36;;;;;;;;;;;;;;;13.92;43.18;94560.06;4191476;28;20544;-64
2024/04/04 05:55:36;;;;;;;;;;;;;;;14.02;43.32;94557.13;4184935;28;20014;-61
2024/04/04 05:57:37;;;;;;;;;;;;;;;14.16;43.26;94552.84;4184882;28;19924;-62
2024/04/04 05:59:37;;;;;;;;;;;;;;;14.37;43.04;94558.16;4192577;28;19947;-59
2024/04/04 06:01:39;;;;;;;;;;;;;;;14.50;42.35;94562.78;4189900;28;20416;-60
2024/04/04 06:03:42;;;;;;;;;;;;;;;14.63;41.62;94551.59;4184122;28;20078;-62
2024/04/04 06:05:43;;;;;;;;;;;;;;;14.77;41.43;94545.41;4191122;28;19996;-59
2024/04/04 06:07:44;;;;;;;;;;;;;;;14.88;41.11;94549.38;4193025;28;20118;-62
2024/04/04 06:09:44;;;;;;;;;;;;;;;14.96;41.03;94551.88;4188047;28;19978;-60
2024/04/04 06:11:45;;;;;;;;;;;;;;;14.94;41.08;94548.63;4187628;28;19928;-60
2024/04/04 06:13:46;;;;;;;;;;;;;;;15.05;41.01;94548.09;4189606;28;20457;-62
2024/04/04 06:15:52;;;;;;;;;;;;;;;15.18;40.75;94551.84;4193937;28;19985;-61
2024/04/04 06:17:53;;;;;;;;;;;;;;;15.11;40.51;94559.72;4188990;28;19932;-61
2024/04/04 06:19:54;;;;;;;;;;;;;;;14.91;41.17;94562.19;4192182;28;20083;-59
2024/04/04 06:21:56;;;;;;;;;;;;;;;14.82;41.32;94568.56;4190419;28;19931;-60
2024/04/04 06:23:57;;;;;;;;;;;;;;;14.92;41.15;94564.63;4195352;28;19939;-61
2024/04/04 06:25:58;;;;;;;;;;;;;;;15.05;40.99;94557.84;4186250;28;19932;-61
2024/04/04 06:27:58;;;;;;;;;;;;;;;15.20;40.57;94565.69;4186702;28;20023;-60
2024/04/04 06:29:59;;;;;;;;;;;;;;;15.27;39.03;94567.38;4188000;28;19947;-61
2024/04/04 06:32:03;;;;;;;;;;;;;;;15.34;38.36;94573.50;4184632;28;20310;-61
2024/04/04 06:34:04;;;;;;;;;;;;;;;15.05;38.36;94576.31;4198553;28;20012;-61
2024/04/04 06:36:05;;;;;;;;;;;;;;;14.71;38.68;94581.28;4190107;28;20417;-60
2024/04/04 06:38:05;;;;;;;;;;;;;;;14.52;38.34;94576.59;4175376;28;19973;-62
2024/04/04 06:40:06;;;;;;;;;;;;;;;14.72;38.21;94579.44;4191762;28;19924;-61
2024/04/04 06:42:07;;;;;;;;;;;;;;;14.76;38.64;94574.63;4186463;28;20355;-60
2024/04/04 06:44:08;;;;;;;;;;;;;;;14.94;38.62;94575.00;4193773;28;19936;-59
2024/04/04 06:46:08;;;;;;;;;;;;;;;15.21;38.10;94580.50;4191736;28;19959;-62
2024/04/04 06:48:09;;;;;;;;;;;;;;;15.20;36.93;94578.88;4169902;28;19970;-61
2024/04/04 06:50:09;;;;;;;;;;;;;;;15.14;35.75;94589.19;4189742;28;19924;-63
2024/04/04 06:52:10;;;;;;;;;;;;;;;15.34;34.81;94575.34;4180909;28;19958;-62
2024/04/04 06:54:11;;;;;;;;;;;;;;;15.53;33.33;94571.19;4187870;28;19925;-62
2024/04/04 06:56:12;;;;;;;;;;;;;;;15.40;32.95;94571.09;4194461;28;19947;-61
2024/04/04 06:58:13;;;;;;;;;;;;;;;15.24;32.70;94577.47;4194207;28;19925;-61
2024/04/04 07:00:14;;;;;;;;;;;;;;;15.49;32.75;94577.88;4193179;28;19997;-59
2024/04/04 07:02:15;;;;;;;;;;;;;;;15.28;32.83;94584.81;4190130;28;19924;-60
2024/04/04 07:04:15;;;;;;;;;;;;;;;15.61;32.23;94576.31;4190844;28;19925;-60
2024/04/04 07:06:16;;;;;;;;;;;;;;;15.41;32.61;94593.88;4162192;28;20035;-60
2024/04/04 07:08:17;;;;;;;;;;;;;;;15.52;33.46;94580.94;4180599;28;19928;-61
2024/04/04 07:10:18;;;;;;;;;;;;;;;15.19;33.79;94583.34;4191190;28;19959;-61
2024/04/04 07:12:18;;;;;;;;;;;;;;;14.96;34.19;94594.09;4171919;28;19944;-61
2024/04/04 07:14:19;;;;;;;;;;;;;;;14.99;33.96;94591.06;4194848;28;20333;-61
2024/04/04 07:16:19;;;;;;;;;;;;;;;15.31;33.99;94580.97;4192380;28;19924;-60
2024/04/04 07:18:20;;;;;;;;;;;;;;;15.27;33.73;94582.38;4190438;28;19977;-61
2024/04/04 07:20:21;;;;;;;;;;;;;;;15.47;32.93;94583.34;4182220;28;19929;-61
2024/04/04 07:22:21;;;;;;;;;;;;;;;15.47;32.27;94578.06;4185979;28;20365;-61
2024/04/04 07:24:22;;;;;;;;;;;;;;;15.42;32.45;94583.09;4180582;28;19924;-64
2024/04/04 07:26:23;;;;;;;;;;;;;;;15.56;32.22;94576.91;4191286;28;19924;-60
2024/04/04 07:28:24;;;;;;;;;;;;;;;15.44;32.16;94598.75;4192249;28;19993;-62
2024/04/04 07:30:25;;;;;;;;;;;;;;;15.54;32.76;94583.41;4174721;28;19955;-63
2024/04/04 07:32:26;;;;;;;;;;;;;;;15.32;32.50;94583.44;4186400;28;20058;-61
2024/04/04 07:34:26;;;;;;;;;;;;;;;15.39;32.50;94580.03;4190435;28;20024;-61
2024/04/04 07:36:27;;;;;;;;;;;;;;;15.46;32.08;94586.97;4184670;28;19925;-60
2024/04/04 07:38:28;;;;;;;;;;;;;;;15.92;32.20;94586.53;4189959;28;19928;-61
2024/04/04 07:40:28;;;;;;;;;;;;;;;15.67;31.88;94590.59;4173437;28;19936;-61
2024/04/04 07:42:29;;;;;;;;;;;;;;;15.46;32.88;94591.44;4186474;28;19924;-63
2024/04/04 07:44:29;;;;;;;;;;;;;;;15.50;33.12;94584.78;4187181;28;19925;-60
2024/04/04 07:46:30;;;;;;;;;;;;;;;15.59;32.69;94591.53;4181243;28;20402;-61
2024/04/04 07:48:32;;;;;;;;;;;;;;;15.81;32.45;94584.44;4183141;28;19962;-60
2024/04/04 07:50:33;;;;;;;;;;;;;;;16.20;32.17;94588.28;4187902;28;19925;-61
2024/04/04 07:52:34;;;;;;;;;;;;;;;16.46;32.25;94581.50;4188862;28;20380;-60
2024/04/04 07:54:35;;;;;;;;;;;;;;;16.41;32.35;94587.34;4190110;28;19932;-62
2024/04/04 07:56:36;;;;;;;;;;;;;;;16.19;33.07;94584.00;4181594;28;20021;-60
2024/04/04 07:58:37;;;;;;;;;;;;;;;15.86;34.02;94605.78;4180723;28;19925;-63
2024/04/04 08:00:39;;;;;;;;;;;;;;;15.97;34.77;94581.47;4180434;28;19986;-60
2024/04/04 08:02:41;;;;;;;;;;;;;;;16.23;34.24;94574.69;4194416;28;19990;-60
2024/04/04 08:04:42;;;;;;;;;;;;;;;16.28;33.15;94585.50;4169800;28;20015;-61
2024/04/04 08:06:42;;;;;;;;;;;;;;;16.29;33.45;94583.66;4192740;28;19924;-59
2024/04/04 08:08:43;;;;;;;;;;;;;;;16.03;34.46;94584.34;4171586;28;19935;-60
2024/04/04 08:10:43;;;;;;;;;;;;;;;15.76;34.87;94592.91;4179801;28;19924;-61
2024/04/04 08:12:44;;;;;;;;;;;;;;;16.03;34.95;94597.56;4188448;28;19931;-61
2024/04/04 08:14:45;;;;;;;;;;;;;;;15.99;34.09;94585.75;4181654;28;19933;-62
2024/04/04 08:16:45;;;;;;;;;;;;;;;15.86;34.82;94592.56;4190167;28;20012;-61
2024/04/04 08:18:47;;;;;;;;;;;;;;;15.80;34.62;94588.06;4187485;28;19989;-61
2024/04/04 08:20:48;;;;;;;;;;;;;;;16.04;34.39;94589.41;4186355;28;20361;-62
2024/04/04 08:22:50;;;;;;;;;;;;;;;16.14;34.67;94589.88;4185413;28;20041;-60
2024/04/04 08:24:51;;;;;;;;;;;;;;;16.33;34.67;94585.69;4187910;28;19924;-61
2024/04/04 08:26:52;;;;;;;;;;;;;;;16.57;34.28;94588.84;4192949;28;20405;-61
2024/04/04 08:28:53;;;;;;;;;;;;;;;16.51;34.20;94586.97;4193062;28;19924;-61
2024/04/04 08:30:59;;;;;;;;;;;;;;;16.28;34.16;94596.06;4187532;28;20001;-61
2024/04/04 08:33:00;;;;;;;;;;;;;;;16.21;34.86;94589.09;4181910;28;19928;-62
2024/04/04 08:35:01;;;;;;;;;;;;;;;16.31;34.50;94586.91;4188794;28;19951;-64
2024/04/04 08:37:01;;;;;;;;;;;;;;;16.47;34.52;94581.25;4192834;28;19976;-62
2024/04/04 08:39:02;;;;;;;;;;;;;;;16.07;34.99;94594.31;4184899;28;19928;-60
2024/04/04 08:41:10;;;;;;;;;;;;;;;16.49;35.18;94587.19;4201093;28;20006;-60
2024/04/04 08:43:13;;;;;;;;;;;;;;;16.59;34.66;94586.81;4190295;28;19924;-61
2024/04/04 08:45:15;;;;;;;;;;;;;;;16.43;34.98;94603.81;4179985;28;19940;-62
2024/04/04 08:47:16;;;;;;;;;;;;;;;16.76;34.29;94597.84;4176678;28;19932;-61
2024/04/04 08:49:16;;;;;;;;;;;;;;;17.01;33.94;94586.72;4182324;28;19925;-61
2024/04/04 08:51:19;;;;;;;;;;;;;;;17.34;33.91;94584.13;4177610;28;20380;-60
2024/04/04 08:53:22;;;;;;;;;;;;;;;17.56;33.65;94593.47;4181807;28;20406;-59
2024/04/04 08:55:24;;;;;;;;;;;;;;;17.15;34.35;94604.25;4193171;28;19980;-61
2024/04/04 08:57:25;;;;;;;;;;;;;;;16.93;34.96;94585.91;4183555;28;20457;-64
2024/04/04 08:59:26;;;;;;;;;;;;;;;16.67;35.18;94594.56;4194880;28;19990;-61
2024/04/04 09:01:26;;;;;;;;;;;;;;;16.75;35.59;94597.00;4183703;28;20386;-59
2024/04/04 09:03:27;;;;;;;;;;;;;;;16.79;35.26;94590.31;4169938;28;20244;-62
2024/04/04 09:05:27;;;;;;;;;;;;;;;16.91;35.32;94587.94;4180540;28;19929;-60
2024/04/04 09:07:28;;;;;;;;;;;;;;;16.98;35.50;94583.47;4180322;28;19928;-60
2024/04/04 09:09:29;;;;;;;;;;;;;;;17.46;34.75;94587.78;4187893;28;19925;-62
2024/04/04 09:11:30;;;;;;;;;;;;;;;17.73;33.89;94588.56;4193649;28;20333;-61
2024/04/04 09:13:30;;;;;;;;;;;;;;;17.54;33.97;94586.75;4188817;28;19924;-61
2024/04/04 09:15:31;;;;;;;;;;;;;;;17.03;34.45;94597.94;4185502;28;19985;-62
2024/04/04 09:17:32;;;;;;;;;;;;;;;16.70;34.72;94586.22;4177805;28;19924;-63
2024/04/04 09:19:32;;;;;;;;;;;;;;;16.62;35.54;94585.59;4185118;28;20241;-62
2024/04/04 09:21:35;;;;;;;;;;;;;;;16.89;35.01;94586.53;4181793;28;19925;-62
2024/04/04 09:23:36;;;;;;;;;;;;;;;17.02;34.99;94580.44;4188152;28;20034;-58
2024/04/04 09:25:40;;;;;;;;;;;;;;;16.98;34.88;94585.31;4186249;28;19982;-63
2024/04/04 09:27:40;;;;;;;;;;;;;;;16.76;34.81;94579.34;4187336;28;20484;-60
2024/04/04 09:29:41;;;;;;;;;;;;;;;16.72;35.12;94588.69;4187692;28;20113;-61
2024/04/04 09:31:43;;;;;;;;;;;;;;;16.79;34.51;94581.56;4191251;28;19929;-61
2024/04/04 09:33:43;;;;;;;;;;;;;;;16.67;35.29;94580.50;4190025;28;20355;-61
2024/04/04 09:35:45;;;;;;;;;;;;;;;16.52;35.83;94570.09;4186143;28;20019;-60
2024/04/04 09:37:47;;;;;;;;;;;;;;;17.03;35.29;94561.69;4170908;28;19928;-63
2024/04/04 09:39:47;;;;;;;;;;;;;;;17.50;34.16;94567.81;4176600;28;19924;-62
2024/04/04 09:41:48;;;;;;;;;;;;;;;17.16;33.92;94569.66;4191126;28;19988;-63
2024/04/04 09:43:49;;;;;;;;;;;;;;;17.37;33.84;94554.59;4173679;28;19936;-62
2024/04/04 09:45:49;;;;;;;;;;;;;;;17.75;33.25;94553.94;4185379;28;19983;-60
2024/04/04 09:47:53;;;;;;;;;;;;;;;18.18;32.70;94564.84;4160364;28;20063;-60
2024/04/04 09:49:58;;;;;;;;;;;;;;;18.32;31.78;94557.66;4184723;28;20166;-62
2024/04/04 09:52:01;;;;;;;;;;;;;;;18.54;32.37;94554.69;4167086;28;19937;-61
2024/04/04 09:54:02;;;;;;;;;;;;;;;18.65;31.95;94559.34;4166699;28;19929;-61
2024/04/04 09:56:04;;;;;;;;;;;;;;;18.53;31.82;94555.75;4169407;28;20284;-62
2024/04/04 09:58:05;;;;;;;;;;;;;;;18.84;31.60;94554.97;4194863;28;19985;-62
2024/04/04 10:00:19;;;;;;;;;;;;;;;18.87;31.44;94553.75;4187856;28;19977;-62
2024/04/04 10:02:35;;;;;;;;;;;;;;;19.02;31.16;94541.00;4192194;28;20005;-62
2024/04/04 10:04:36;;;;;;;;;;;;;;;18.57;31.22;94547.13;4200876;28;19935;-62
2024/04/04 10:06:37;;;;;;;;;;;;;;;18.56;31.57;94555.31;4185251;28;19944;-61
2024/04/04 10:08:39;;;;;;;;;;;;;;;18.77;30.81;94547.03;4185445;28;19928;-58
2024/04/04 10:10:41;;;;;;;;;;;;;;;18.45;30.96;94553.31;4191100;28;19929;-60
2024/04/04 10:12:42;;;;;;;;;;;;;;;17.97;31.30;94559.81;4187133;28;19929;-61
2024/04/04 10:14:49;;;;;;;;;;;;;;;17.92;31.76;94547.19;4184244;28;21100;-61
2024/04/04 10:16:55;;;;;;;;;;;;;;;18.28;31.51;94561.75;4190606;28;19924;-61
2024/04/04 10:18:56;;;;;;;;;;;;;;;18.00;31.64;94552.28;4183575;28;20339;-63
2024/04/04 10:20:59;;;;;;;;;;;;;;;18.12;31.69;94549.78;4172743;28;19937;-61
2024/04/04 10:23:01;;;;;;;;;;;;;;;17.89;30.83;94544.94;4182872;28;20468;-60
2024/04/04 10:25:05;;;;;;;;;;;;;;;17.70;31.29;94545.78;4179914;28;20041;-62
2024/04/04 10:27:07;;;;;;;;;;;;;;;17.45;32.27;94549.09;4187567;28;19924;-60
2024/04/04 10:29:14;;;;;;;;;;;;;;;17.79;31.91;94539.25;4198759;28;20339;-62
2024/04/04 10:31:14;;;;;;;;;;;;;;;17.97;31.66;94555.31;4186422;28;20399;-61
2024/04/04 10:33:15;;;;;;;;;;;;;;;17.96;31.01;94542.28;4190878;28;19939;-63